sensor_id;sensor_type;location;lat;lon;timestamp;P1;durP1;ratioP1;P2;durP2;ratioP2
33184;SDS011;19550;42.872;25.494;2024-03-23T00:52:44;13.23;;;7.20;;
33184;SDS011;19550;42.872;25.494;2024-03-23T00:55:10;13.50;;;7.20;;
33184;SDS011;19550;42.872;25.494;2024-03-23T00:57:37;11.13;;;6.95;;
33184;SDS011;19550;42.872;25.494;2024-03-23T01:00:04;17.75;;;7.60;;
33184;SDS011;19550;42.872;25.494;2024-03-23T01:02:35;12.52;;;7.03;;
33184;SDS011;19550;42.872;25.494;2024-03-23T01:05:01;10.38;;;6.45;;
33184;SDS011;19550;42.872;25.494;2024-03-23T01:07:27;12.70;;;6.97;;
33184;SDS011;19550;42.872;25.494;2024-03-23T01:09:54;13.05;;;6.95;;
33184;SDS011;19550;42.872;25.494;2024-03-23T01:12:21;15.50;;;6.93;;
33184;SDS011;19550;42.872;25.494;2024-03-23T01:14:47;13.50;;;7.32;;
33184;SDS011;19550;42.872;25.494;2024-03-23T01:17:14;12.73;;;7.18;;
33184;SDS011;19550;42.872;25.494;2024-03-23T01:19:39;18.77;;;7.28;;
33184;SDS011;19550;42.872;25.494;2024-03-23T01:22:06;12.00;;;7.30;;
33184;SDS011;19550;42.872;25.494;2024-03-23T01:24:32;15.73;;;7.32;;
33184;SDS011;19550;42.872;25.494;2024-03-23T01:27:02;14.93;;;6.87;;
33184;SDS011;19550;42.872;25.494;2024-03-23T01:29:28;12.15;;;6.47;;
33184;SDS011;19550;42.872;25.494;2024-03-23T01:31:55;13.35;;;7.13;;
33184;SDS011;19550;42.872;25.494;2024-03-23T01:34:21;19.67;;;7.03;;
33184;SDS011;19550;42.872;25.494;2024-03-23T01:36:49;12.93;;;6.68;;
33184;SDS011;19550;42.872;25.494;2024-03-23T01:39:15;12.02;;;5.97;;
33184;SDS011;19550;42.872;25.494;2024-03-23T01:41:42;13.40;;;6.68;;
33184;SDS011;19550;42.872;25.494;2024-03-23T01:44:09;17.25;;;7.57;;
33184;SDS011;19550;42.872;25.494;2024-03-23T01:46:37;12.50;;;7.32;;
33184;SDS011;19550;42.872;25.494;2024-03-23T01:49:04;11.93;;;6.97;;
33184;SDS011;19550;42.872;25.494;2024-03-23T01:51:31;14.82;;;7.30;;
33184;SDS011;19550;42.872;25.494;2024-03-23T01:53:58;13.68;;;7.20;;
33184;SDS011;19550;42.872;25.494;2024-03-23T01:56:28;12.75;;;6.60;;
33184;SDS011;19550;42.872;25.494;2024-03-23T01:58:55;10.82;;;5.95;;
33184;SDS011;19550;42.872;25.494;2024-03-23T02:01:23;12.82;;;6.68;;
33184;SDS011;19550;42.872;25.494;2024-03-23T02:03:49;11.30;;;6.53;;
33184;SDS011;19550;42.872;25.494;2024-03-23T02:06:15;13.20;;;7.50;;
33184;SDS011;19550;42.872;25.494;2024-03-23T02:08:41;11.52;;;6.85;;
33184;SDS011;19550;42.872;25.494;2024-03-23T02:11:08;12.00;;;6.95;;
33184;SDS011;19550;42.872;25.494;2024-03-23T02:13:34;13.98;;;7.70;;
33184;SDS011;19550;42.872;25.494;2024-03-23T02:16:02;13.30;;;7.13;;
33184;SDS011;19550;42.872;25.494;2024-03-23T02:18:29;11.40;;;6.57;;
33184;SDS011;19550;42.872;25.494;2024-03-23T02:20:56;11.27;;;6.30;;
33184;SDS011;19550;42.872;25.494;2024-03-23T02:23:23;13.23;;;6.75;;
33184;SDS011;19550;42.872;25.494;2024-03-23T02:25:50;13.05;;;8.85;;
33184;SDS011;19550;42.872;25.494;2024-03-23T02:28:16;10.70;;;5.70;;
33184;SDS011;19550;42.872;25.494;2024-03-23T02:30:43;11.25;;;5.95;;
33184;SDS011;19550;42.872;25.494;2024-03-23T02:33:09;8.85;;;5.68;;
33184;SDS011;19550;42.872;25.494;2024-03-23T02:35:36;9.05;;;5.72;;
33184;SDS011;19550;42.872;25.494;2024-03-23T02:38:02;9.68;;;5.95;;
33184;SDS011;19550;42.872;25.494;2024-03-23T02:40:30;9.35;;;6.32;;
33184;SDS011;19550;42.872;25.494;2024-03-23T02:42:56;13.45;;;6.68;;
33184;SDS011;19550;42.872;25.494;2024-03-23T02:45:23;14.80;;;6.03;;
33184;SDS011;19550;42.872;25.494;2024-03-23T02:47:49;11.98;;;6.70;;
33184;SDS011;19550;42.872;25.494;2024-03-23T02:50:17;10.90;;;6.60;;
33184;SDS011;19550;42.872;25.494;2024-03-23T02:52:43;13.75;;;6.72;;
33184;SDS011;19550;42.872;25.494;2024-03-23T02:55:10;10.85;;;5.88;;
33184;SDS011;19550;42.872;25.494;2024-03-23T02:57:37;11.55;;;6.30;;
33184;SDS011;19550;42.872;25.494;2024-03-23T03:00:04;9.65;;;6.25;;
33184;SDS011;19550;42.872;25.494;2024-03-23T03:02:32;10.30;;;5.57;;
33184;SDS011;19550;42.872;25.494;2024-03-23T03:04:58;13.10;;;6.68;;
33184;SDS011;19550;42.872;25.494;2024-03-23T03:07:24;10.93;;;5.85;;
33184;SDS011;19550;42.872;25.494;2024-03-23T03:09:51;10.63;;;5.82;;
33184;SDS011;19550;42.872;25.494;2024-03-23T03:12:17;11.82;;;6.20;;
33184;SDS011;19550;42.872;25.494;2024-03-23T03:14:45;11.65;;;6.28;;
33184;SDS011;19550;42.872;25.494;2024-03-23T03:17:11;8.68;;;5.45;;
33184;SDS011;19550;42.872;25.494;2024-03-23T03:19:38;11.07;;;6.18;;
33184;SDS011;19550;42.872;25.494;2024-03-23T03:22:04;11.35;;;6.22;;
33184;SDS011;19550;42.872;25.494;2024-03-23T03:24:31;9.52;;;5.80;;
33184;SDS011;19550;42.872;25.494;2024-03-23T03:26:56;10.35;;;6.00;;
33184;SDS011;19550;42.872;25.494;2024-03-23T03:29:23;9.73;;;5.68;;
33184;SDS011;19550;42.872;25.494;2024-03-23T03:31:51;8.68;;;5.20;;
33184;SDS011;19550;42.872;25.494;2024-03-23T03:34:17;11.55;;;5.53;;
33184;SDS011;19550;42.872;25.494;2024-03-23T03:36:43;11.65;;;5.85;;
33184;SDS011;19550;42.872;25.494;2024-03-23T03:39:10;12.20;;;5.75;;
33184;SDS011;19550;42.872;25.494;2024-03-23T03:41:36;12.48;;;5.95;;
33184;SDS011;19550;42.872;25.494;2024-03-23T03:44:02;10.48;;;5.60;;
33184;SDS011;19550;42.872;25.494;2024-03-23T03:46:28;9.77;;;5.43;;
33184;SDS011;19550;42.872;25.494;2024-03-23T03:48:56;10.18;;;5.40;;
33184;SDS011;19550;42.872;25.494;2024-03-23T03:51:23;11.30;;;6.03;;
33184;SDS011;19550;42.872;25.494;2024-03-23T03:53:50;11.63;;;6.05;;
33184;SDS011;19550;42.872;25.494;2024-03-23T03:56:16;10.90;;;5.82;;
33184;SDS011;19550;42.872;25.494;2024-03-23T03:58:43;9.55;;;6.05;;
33184;SDS011;19550;42.872;25.494;2024-03-23T04:01:09;10.25;;;6.00;;
33184;SDS011;19550;42.872;25.494;2024-03-23T04:03:35;17.08;;;7.15;;
33184;SDS011;19550;42.872;25.494;2024-03-23T04:06:03;13.40;;;7.82;;
33184;SDS011;19550;42.872;25.494;2024-03-23T04:08:30;15.15;;;11.02;;
33184;SDS011;19550;42.872;25.494;2024-03-23T04:10:56;13.48;;;8.90;;
33184;SDS011;19550;42.872;25.494;2024-03-23T04:13:22;13.07;;;7.88;;
33184;SDS011;19550;42.872;25.494;2024-03-23T04:15:48;12.07;;;7.63;;
33184;SDS011;19550;42.872;25.494;2024-03-23T04:18:15;11.75;;;6.85;;
33184;SDS011;19550;42.872;25.494;2024-03-23T04:20:41;12.07;;;5.97;;
33184;SDS011;19550;42.872;25.494;2024-03-23T04:23:11;9.77;;;5.70;;
33184;SDS011;19550;42.872;25.494;2024-03-23T04:25:36;10.05;;;6.50;;
33184;SDS011;19550;42.872;25.494;2024-03-23T04:28:03;10.68;;;6.32;;
33184;SDS011;19550;42.872;25.494;2024-03-23T04:30:30;11.18;;;6.35;;
33184;SDS011;19550;42.872;25.494;2024-03-23T04:32:57;13.95;;;7.82;;
33184;SDS011;19550;42.872;25.494;2024-03-23T04:35:23;24.27;;;10.88;;
33184;SDS011;19550;42.872;25.494;2024-03-23T04:37:50;26.70;;;10.88;;
33184;SDS011;19550;42.872;25.494;2024-03-23T04:40:19;19.05;;;8.90;;
33184;SDS011;19550;42.872;25.494;2024-03-23T04:42:46;19.40;;;8.70;;
33184;SDS011;19550;42.872;25.494;2024-03-23T04:45:13;19.40;;;9.63;;
33184;SDS011;19550;42.872;25.494;2024-03-23T04:47:40;18.65;;;9.45;;
33184;SDS011;19550;42.872;25.494;2024-03-23T04:50:07;17.00;;;9.77;;
33184;SDS011;19550;42.872;25.494;2024-03-23T04:52:35;17.30;;;8.68;;
33184;SDS011;19550;42.872;25.494;2024-03-23T04:55:01;20.70;;;10.85;;
33184;SDS011;19550;42.872;25.494;2024-03-23T04:57:29;26.52;;;12.70;;
33184;SDS011;19550;42.872;25.494;2024-03-23T04:59:55;16.77;;;9.77;;
33184;SDS011;19550;42.872;25.494;2024-03-23T05:02:23;17.00;;;9.07;;
33184;SDS011;19550;42.872;25.494;2024-03-23T05:04:50;24.60;;;10.63;;
33184;SDS011;19550;42.872;25.494;2024-03-23T05:07:16;24.02;;;10.30;;
33184;SDS011;19550;42.872;25.494;2024-03-23T05:09:43;43.33;;;17.92;;
33184;SDS011;19550;42.872;25.494;2024-03-23T05:12:09;40.60;;;16.63;;
33184;SDS011;19550;42.872;25.494;2024-03-23T05:14:37;22.60;;;11.65;;
33184;SDS011;19550;42.872;25.494;2024-03-23T05:17:03;22.77;;;11.02;;
33184;SDS011;19550;42.872;25.494;2024-03-23T05:19:29;21.17;;;10.30;;
33184;SDS011;19550;42.872;25.494;2024-03-23T05:21:55;21.25;;;10.60;;
33184;SDS011;19550;42.872;25.494;2024-03-23T05:24:22;17.00;;;8.82;;
33184;SDS011;19550;42.872;25.494;2024-03-23T05:26:48;20.90;;;10.05;;
33184;SDS011;19550;42.872;25.494;2024-03-23T05:29:14;16.92;;;9.18;;
33184;SDS011;19550;42.872;25.494;2024-03-23T05:31:43;17.83;;;9.85;;
33184;SDS011;19550;42.872;25.494;2024-03-23T05:34:10;29.13;;;13.20;;
33184;SDS011;19550;42.872;25.494;2024-03-23T05:36:36;45.10;;;20.60;;
33184;SDS011;19550;42.872;25.494;2024-03-23T05:39:03;33.30;;;16.20;;
33184;SDS011;19550;42.872;25.494;2024-03-23T05:41:28;40.00;;;19.35;;
33184;SDS011;19550;42.872;25.494;2024-03-23T05:43:55;40.15;;;21.13;;
33184;SDS011;19550;42.872;25.494;2024-03-23T05:46:21;28.35;;;17.23;;
33184;SDS011;19550;42.872;25.494;2024-03-23T05:48:49;30.90;;;17.40;;
33184;SDS011;19550;42.872;25.494;2024-03-23T05:51:15;33.75;;;16.95;;
33184;SDS011;19550;42.872;25.494;2024-03-23T05:53:43;36.28;;;16.90;;
33184;SDS011;19550;42.872;25.494;2024-03-23T05:56:08;34.17;;;16.70;;
33184;SDS011;19550;42.872;25.494;2024-03-23T05:58:35;44.03;;;17.70;;
33184;SDS011;19550;42.872;25.494;2024-03-23T06:01:01;32.50;;;15.20;;
33184;SDS011;19550;42.872;25.494;2024-03-23T06:03:28;34.10;;;15.48;;
33184;SDS011;19550;42.872;25.494;2024-03-23T06:05:56;44.58;;;16.05;;
33184;SDS011;19550;42.872;25.494;2024-03-23T06:08:23;71.57;;;28.85;;
33184;SDS011;19550;42.872;25.494;2024-03-23T06:10:49;28.58;;;14.93;;
33184;SDS011;19550;42.872;25.494;2024-03-23T06:13:16;45.33;;;26.05;;
33184;SDS011;19550;42.872;25.494;2024-03-23T06:15:42;32.75;;;19.98;;
33184;SDS011;19550;42.872;25.494;2024-03-23T06:18:11;37.13;;;22.02;;
33184;SDS011;19550;42.872;25.494;2024-03-23T06:20:37;34.78;;;19.33;;
33184;SDS011;19550;42.872;25.494;2024-03-23T06:23:05;44.60;;;21.08;;
33184;SDS011;19550;42.872;25.494;2024-03-23T06:25:31;37.60;;;20.02;;
33184;SDS011;19550;42.872;25.494;2024-03-23T06:27:58;48.22;;;23.33;;
33184;SDS011;19550;42.872;25.494;2024-03-23T06:30:24;49.85;;;27.00;;
33184;SDS011;19550;42.872;25.494;2024-03-23T06:32:51;59.58;;;26.00;;
33184;SDS011;19550;42.872;25.494;2024-03-23T06:35:18;57.25;;;27.15;;
33184;SDS011;19550;42.872;25.494;2024-03-23T06:37:45;67.55;;;29.48;;
33184;SDS011;19550;42.872;25.494;2024-03-23T06:40:12;48.25;;;24.15;;
33184;SDS011;19550;42.872;25.494;2024-03-23T06:42:43;28.55;;;15.25;;
33184;SDS011;19550;42.872;25.494;2024-03-23T06:45:09;34.95;;;18.77;;
33184;SDS011;19550;42.872;25.494;2024-03-23T06:47:36;28.33;;;16.90;;
33184;SDS011;19550;42.872;25.494;2024-03-23T06:50:02;29.80;;;15.13;;
33184;SDS011;19550;42.872;25.494;2024-03-23T06:52:30;23.33;;;13.05;;
33184;SDS011;19550;42.872;25.494;2024-03-23T06:54:56;21.40;;;13.18;;
33184;SDS011;19550;42.872;25.494;2024-03-23T06:57:25;19.65;;;13.02;;
33184;SDS011;19550;42.872;25.494;2024-03-23T06:59:50;22.23;;;13.57;;
33184;SDS011;19550;42.872;25.494;2024-03-23T07:02:20;23.83;;;14.00;;
33184;SDS011;19550;42.872;25.494;2024-03-23T07:04:46;23.47;;;12.40;;
33184;SDS011;19550;42.872;25.494;2024-03-23T07:07:13;22.42;;;12.15;;
33184;SDS011;19550;42.872;25.494;2024-03-23T07:09:39;25.75;;;11.63;;
33184;SDS011;19550;42.872;25.494;2024-03-23T07:12:07;30.63;;;15.55;;
33184;SDS011;19550;42.872;25.494;2024-03-23T07:14:35;18.90;;;11.20;;
33184;SDS011;19550;42.872;25.494;2024-03-23T07:17:01;24.95;;;14.68;;
33184;SDS011;19550;42.872;25.494;2024-03-23T07:19:27;21.13;;;11.60;;
33184;SDS011;19550;42.872;25.494;2024-03-23T07:21:54;21.15;;;11.70;;
33184;SDS011;19550;42.872;25.494;2024-03-23T07:24:20;19.23;;;10.65;;
33184;SDS011;19550;42.872;25.494;2024-03-23T07:26:46;11.32;;;7.88;;
33184;SDS011;19550;42.872;25.494;2024-03-23T07:29:13;10.65;;;6.90;;
33184;SDS011;19550;42.872;25.494;2024-03-23T07:31:41;11.38;;;7.20;;
33184;SDS011;19550;42.872;25.494;2024-03-23T07:34:07;10.85;;;5.38;;
33184;SDS011;19550;42.872;25.494;2024-03-23T07:36:34;10.30;;;6.47;;
33184;SDS011;19550;42.872;25.494;2024-03-23T07:38:59;6.28;;;4.47;;
33184;SDS011;19550;42.872;25.494;2024-03-23T07:41:26;8.00;;;4.43;;
33184;SDS011;19550;42.872;25.494;2024-03-23T07:43:53;9.20;;;5.38;;
33184;SDS011;19550;42.872;25.494;2024-03-23T07:46:20;7.75;;;5.78;;
33184;SDS011;19550;42.872;25.494;2024-03-23T07:48:47;5.47;;;3.83;;
33184;SDS011;19550;42.872;25.494;2024-03-23T07:51:15;4.35;;;3.20;;
33184;SDS011;19550;42.872;25.494;2024-03-23T07:53:43;8.00;;;3.90;;
33184;SDS011;19550;42.872;25.494;2024-03-23T07:56:11;5.82;;;3.30;;
33184;SDS011;19550;42.872;25.494;2024-03-23T07:58:37;4.25;;;3.03;;
33184;SDS011;19550;42.872;25.494;2024-03-23T08:01:05;4.45;;;3.05;;
33184;SDS011;19550;42.872;25.494;2024-03-23T08:03:33;5.85;;;3.20;;
33184;SDS011;19550;42.872;25.494;2024-03-23T08:06:07;5.25;;;2.80;;
33184;SDS011;19550;42.872;25.494;2024-03-23T08:08:34;3.92;;;2.92;;
33184;SDS011;19550;42.872;25.494;2024-03-23T08:11:00;5.10;;;2.95;;
33184;SDS011;19550;42.872;25.494;2024-03-23T08:13:26;4.85;;;3.13;;
33184;SDS011;19550;42.872;25.494;2024-03-23T08:15:56;5.65;;;3.45;;
33184;SDS011;19550;42.872;25.494;2024-03-23T08:18:22;8.13;;;3.65;;
33184;SDS011;19550;42.872;25.494;2024-03-23T08:20:55;6.80;;;3.60;;
33184;SDS011;19550;42.872;25.494;2024-03-23T08:23:22;3.78;;;3.10;;
33184;SDS011;19550;42.872;25.494;2024-03-23T08:25:49;6.95;;;3.45;;
33184;SDS011;19550;42.872;25.494;2024-03-23T08:28:15;4.63;;;3.03;;
33184;SDS011;19550;42.872;25.494;2024-03-23T08:30:42;3.70;;;2.80;;
33184;SDS011;19550;42.872;25.494;2024-03-23T08:33:08;4.40;;;3.17;;
33184;SDS011;19550;42.872;25.494;2024-03-23T08:35:35;3.15;;;2.60;;
33184;SDS011;19550;42.872;25.494;2024-03-23T08:38:01;4.10;;;3.30;;
33184;SDS011;19550;42.872;25.494;2024-03-23T08:40:29;4.60;;;3.30;;
33184;SDS011;19550;42.872;25.494;2024-03-23T08:42:55;6.82;;;3.20;;
33184;SDS011;19550;42.872;25.494;2024-03-23T08:45:21;5.68;;;2.85;;
33184;SDS011;19550;42.872;25.494;2024-03-23T08:47:47;6.15;;;2.50;;
33184;SDS011;19550;42.872;25.494;2024-03-23T08:50:14;3.22;;;2.55;;
33184;SDS011;19550;42.872;25.494;2024-03-23T08:52:40;3.40;;;2.65;;
33184;SDS011;19550;42.872;25.494;2024-03-23T08:55:07;3.28;;;2.40;;
33184;SDS011;19550;42.872;25.494;2024-03-23T08:57:36;4.70;;;2.72;;
33184;SDS011;19550;42.872;25.494;2024-03-23T09:00:03;4.13;;;2.72;;
33184;SDS011;19550;42.872;25.494;2024-03-23T09:02:31;5.75;;;2.88;;
33184;SDS011;19550;42.872;25.494;2024-03-23T09:04:58;6.00;;;2.70;;
33184;SDS011;19550;42.872;25.494;2024-03-23T09:07:31;5.35;;;2.83;;
33184;SDS011;19550;42.872;25.494;2024-03-23T09:09:58;3.93;;;2.97;;
33184;SDS011;19550;42.872;25.494;2024-03-23T09:12:24;3.90;;;2.38;;
33184;SDS011;19550;42.872;25.494;2024-03-23T09:14:52;2.72;;;2.30;;
33184;SDS011;19550;42.872;25.494;2024-03-23T09:17:18;3.50;;;2.72;;
33184;SDS011;19550;42.872;25.494;2024-03-23T09:19:45;7.47;;;2.70;;
33184;SDS011;19550;42.872;25.494;2024-03-23T09:22:11;2.83;;;2.10;;
33184;SDS011;19550;42.872;25.494;2024-03-23T09:24:38;2.58;;;2.13;;
33184;SDS011;19550;42.872;25.494;2024-03-23T09:27:04;3.95;;;2.15;;
33184;SDS011;19550;42.872;25.494;2024-03-23T09:29:31;4.35;;;2.05;;
33184;SDS011;19550;42.872;25.494;2024-03-23T09:31:58;3.50;;;2.13;;
33184;SDS011;19550;42.872;25.494;2024-03-23T09:34:25;2.80;;;2.15;;
33184;SDS011;19550;42.872;25.494;2024-03-23T09:36:51;3.40;;;2.60;;
33184;SDS011;19550;42.872;25.494;2024-03-23T09:39:18;6.55;;;3.20;;
33184;SDS011;19550;42.872;25.494;2024-03-23T09:41:44;4.32;;;2.67;;
33184;SDS011;19550;42.872;25.494;2024-03-23T09:44:11;4.05;;;2.20;;
33184;SDS011;19550;42.872;25.494;2024-03-23T09:46:37;3.42;;;2.10;;
33184;SDS011;19550;42.872;25.494;2024-03-23T09:49:06;2.67;;;2.00;;
33184;SDS011;19550;42.872;25.494;2024-03-23T09:51:34;3.40;;;1.95;;
33184;SDS011;19550;42.872;25.494;2024-03-23T09:54:02;4.50;;;2.22;;
33184;SDS011;19550;42.872;25.494;2024-03-23T09:56:28;5.60;;;2.20;;
33184;SDS011;19550;42.872;25.494;2024-03-23T09:58:59;3.42;;;2.63;;
33184;SDS011;19550;42.872;25.494;2024-03-23T10:01:26;2.13;;;1.80;;
33184;SDS011;19550;42.872;25.494;2024-03-23T10:03:53;3.17;;;2.53;;
33184;SDS011;19550;42.872;25.494;2024-03-23T10:06:22;4.80;;;2.38;;
33184;SDS011;19550;42.872;25.494;2024-03-23T10:08:50;4.30;;;2.30;;
33184;SDS011;19550;42.872;25.494;2024-03-23T10:11:16;4.75;;;3.17;;
33184;SDS011;19550;42.872;25.494;2024-03-23T10:13:43;3.65;;;2.33;;
33184;SDS011;19550;42.872;25.494;2024-03-23T10:16:11;2.53;;;1.77;;
33184;SDS011;19550;42.872;25.494;2024-03-23T10:18:38;4.22;;;2.35;;
33184;SDS011;19550;42.872;25.494;2024-03-23T10:21:08;2.40;;;1.80;;
33184;SDS011;19550;42.872;25.494;2024-03-23T10:23:38;2.38;;;1.80;;
33184;SDS011;19550;42.872;25.494;2024-03-23T10:26:15;2.53;;;2.10;;
33184;SDS011;19550;42.872;25.494;2024-03-23T10:28:50;2.75;;;1.80;;
33184;SDS011;19550;42.872;25.494;2024-03-23T10:31:17;2.92;;;2.10;;
33184;SDS011;19550;42.872;25.494;2024-03-23T10:33:44;2.95;;;2.00;;
33184;SDS011;19550;42.872;25.494;2024-03-23T10:36:10;3.97;;;1.90;;
33184;SDS011;19550;42.872;25.494;2024-03-23T10:38:39;2.72;;;2.05;;
33184;SDS011;19550;42.872;25.494;2024-03-23T10:41:06;2.42;;;2.20;;
33184;SDS011;19550;42.872;25.494;2024-03-23T10:43:34;3.88;;;1.85;;
33184;SDS011;19550;42.872;25.494;2024-03-23T10:46:02;2.75;;;2.00;;
33184;SDS011;19550;42.872;25.494;2024-03-23T10:48:29;2.45;;;2.10;;
33184;SDS011;19550;42.872;25.494;2024-03-23T10:50:55;3.53;;;2.05;;
33184;SDS011;19550;42.872;25.494;2024-03-23T10:53:22;2.90;;;2.22;;
33184;SDS011;19550;42.872;25.494;2024-03-23T10:55:52;2.33;;;2.10;;
33184;SDS011;19550;42.872;25.494;2024-03-23T10:58:21;1.92;;;1.70;;
33184;SDS011;19550;42.872;25.494;2024-03-23T11:00:51;4.72;;;2.00;;
33184;SDS011;19550;42.872;25.494;2024-03-23T11:03:29;2.28;;;2.08;;
33184;SDS011;19550;42.872;25.494;2024-03-23T11:05:56;3.10;;;1.88;;
33184;SDS011;19550;42.872;25.494;2024-03-23T11:08:36;4.30;;;1.95;;
33184;SDS011;19550;42.872;25.494;2024-03-23T11:11:12;4.88;;;2.78;;
33184;SDS011;19550;42.872;25.494;2024-03-23T11:13:51;4.03;;;2.45;;
33184;SDS011;19550;42.872;25.494;2024-03-23T11:16:21;2.25;;;1.75;;
33184;SDS011;19550;42.872;25.494;2024-03-23T11:18:49;2.88;;;1.95;;
33184;SDS011;19550;42.872;25.494;2024-03-23T11:24:15;5.05;;;2.83;;
33184;SDS011;19550;42.872;25.494;2024-03-23T11:26:42;2.80;;;2.10;;
33184;SDS011;19550;42.872;25.494;2024-03-23T11:29:09;2.50;;;2.17;;
33184;SDS011;19550;42.872;25.494;2024-03-23T11:31:36;6.10;;;2.00;;
33184;SDS011;19550;42.872;25.494;2024-03-23T11:34:03;3.45;;;2.17;;
33184;SDS011;19550;42.872;25.494;2024-03-23T11:36:29;2.97;;;2.13;;
33184;SDS011;19550;42.872;25.494;2024-03-23T11:38:56;2.78;;;1.80;;
33184;SDS011;19550;42.872;25.494;2024-03-23T11:41:22;2.72;;;2.20;;
33184;SDS011;19550;42.872;25.494;2024-03-23T11:43:50;1.92;;;1.73;;
33184;SDS011;19550;42.872;25.494;2024-03-23T11:46:21;2.63;;;2.10;;
33184;SDS011;19550;42.872;25.494;2024-03-23T11:48:49;3.25;;;2.38;;
33184;SDS011;19550;42.872;25.494;2024-03-23T11:51:15;5.47;;;2.30;;
33184;SDS011;19550;42.872;25.494;2024-03-23T11:53:43;8.07;;;2.10;;
33184;SDS011;19550;42.872;25.494;2024-03-23T11:56:09;2.97;;;2.20;;
33184;SDS011;19550;42.872;25.494;2024-03-23T11:58:35;2.15;;;1.88;;
33184;SDS011;19550;42.872;25.494;2024-03-23T12:01:03;3.35;;;2.20;;
33184;SDS011;19550;42.872;25.494;2024-03-23T12:03:30;2.90;;;2.20;;
33184;SDS011;19550;42.872;25.494;2024-03-23T12:05:58;2.13;;;1.88;;
33184;SDS011;19550;42.872;25.494;2024-03-23T12:08:29;3.58;;;2.10;;
33184;SDS011;19550;42.872;25.494;2024-03-23T12:11:04;4.80;;;2.08;;
33184;SDS011;19550;42.872;25.494;2024-03-23T12:13:31;2.53;;;2.05;;
33184;SDS011;19550;42.872;25.494;2024-03-23T12:16:08;2.25;;;1.75;;
33184;SDS011;19550;42.872;25.494;2024-03-23T12:18:36;2.90;;;2.35;;
33184;SDS011;19550;42.872;25.494;2024-03-23T12:21:02;2.63;;;2.10;;
33184;SDS011;19550;42.872;25.494;2024-03-23T12:23:29;3.35;;;1.80;;
33184;SDS011;19550;42.872;25.494;2024-03-23T12:25:55;2.03;;;1.83;;
33184;SDS011;19550;42.872;25.494;2024-03-23T12:28:22;4.70;;;1.88;;
33184;SDS011;19550;42.872;25.494;2024-03-23T12:30:48;2.28;;;1.60;;
33184;SDS011;19550;42.872;25.494;2024-03-23T12:33:16;1.90;;;1.70;;
33184;SDS011;19550;42.872;25.494;2024-03-23T12:35:42;2.50;;;1.80;;
33184;SDS011;19550;42.872;25.494;2024-03-23T12:38:09;2.40;;;2.20;;
33184;SDS011;19550;42.872;25.494;2024-03-23T12:40:35;2.22;;;1.73;;
33184;SDS011;19550;42.872;25.494;2024-03-23T12:43:01;2.15;;;1.88;;
33184;SDS011;19550;42.872;25.494;2024-03-23T12:45:27;3.90;;;1.58;;
33184;SDS011;19550;42.872;25.494;2024-03-23T12:47:54;2.40;;;2.20;;
33184;SDS011;19550;42.872;25.494;2024-03-23T12:50:22;1.60;;;1.50;;
33184;SDS011;19550;42.872;25.494;2024-03-23T12:52:48;2.58;;;1.70;;
33184;SDS011;19550;42.872;25.494;2024-03-23T12:55:16;2.42;;;1.65;;
33184;SDS011;19550;42.872;25.494;2024-03-23T12:57:42;2.28;;;1.90;;
33184;SDS011;19550;42.872;25.494;2024-03-23T13:00:09;2.10;;;1.73;;
33184;SDS011;19550;42.872;25.494;2024-03-23T13:02:36;2.55;;;2.33;;
33184;SDS011;19550;42.872;25.494;2024-03-23T13:05:04;2.10;;;1.90;;
33184;SDS011;19550;42.872;25.494;2024-03-23T13:07:31;5.03;;;1.55;;
33184;SDS011;19550;42.872;25.494;2024-03-23T13:09:58;1.80;;;1.52;;
33184;SDS011;19550;42.872;25.494;2024-03-23T13:12:24;2.50;;;1.70;;
33184;SDS011;19550;42.872;25.494;2024-03-23T13:14:51;3.22;;;1.83;;
33184;SDS011;19550;42.872;25.494;2024-03-23T13:17:17;2.13;;;1.70;;
33184;SDS011;19550;42.872;25.494;2024-03-23T13:19:43;4.63;;;2.33;;
33184;SDS011;19550;42.872;25.494;2024-03-23T13:22:09;4.68;;;1.95;;
33184;SDS011;19550;42.872;25.494;2024-03-23T13:24:38;2.05;;;1.58;;
33184;SDS011;19550;42.872;25.494;2024-03-23T13:27:04;3.78;;;1.63;;
33184;SDS011;19550;42.872;25.494;2024-03-23T13:29:33;2.00;;;1.73;;
33184;SDS011;19550;42.872;25.494;2024-03-23T13:31:59;2.92;;;1.83;;
33184;SDS011;19550;42.872;25.494;2024-03-23T13:34:26;1.85;;;1.70;;
33184;SDS011;19550;42.872;25.494;2024-03-23T13:36:53;2.47;;;1.70;;
33184;SDS011;19550;42.872;25.494;2024-03-23T13:39:20;1.95;;;1.70;;
33184;SDS011;19550;42.872;25.494;2024-03-23T13:41:47;3.80;;;1.90;;
33184;SDS011;19550;42.872;25.494;2024-03-23T13:44:14;4.63;;;2.40;;
33184;SDS011;19550;42.872;25.494;2024-03-23T13:46:40;2.20;;;2.00;;
33184;SDS011;19550;42.872;25.494;2024-03-23T13:49:09;5.90;;;2.30;;
33184;SDS011;19550;42.872;25.494;2024-03-23T13:51:46;3.13;;;2.38;;
33184;SDS011;19550;42.872;25.494;2024-03-23T13:54:13;3.63;;;2.90;;
33184;SDS011;19550;42.872;25.494;2024-03-23T13:56:39;3.30;;;2.60;;
33184;SDS011;19550;42.872;25.494;2024-03-23T13:59:07;10.88;;;8.77;;
33184;SDS011;19550;42.872;25.494;2024-03-23T14:01:33;3.53;;;2.90;;
33184;SDS011;19550;42.872;25.494;2024-03-23T14:03:59;3.75;;;2.72;;
33184;SDS011;19550;42.872;25.494;2024-03-23T14:06:25;5.78;;;2.70;;
33184;SDS011;19550;42.872;25.494;2024-03-23T14:08:52;3.92;;;2.50;;
33184;SDS011;19550;42.872;25.494;2024-03-23T14:11:18;5.50;;;2.70;;
33184;SDS011;19550;42.872;25.494;2024-03-23T14:13:45;3.88;;;2.83;;
33184;SDS011;19550;42.872;25.494;2024-03-23T14:16:12;4.05;;;3.55;;
33184;SDS011;19550;42.872;25.494;2024-03-23T14:18:39;4.57;;;2.90;;
33184;SDS011;19550;42.872;25.494;2024-03-23T14:21:04;5.00;;;2.70;;
33184;SDS011;19550;42.872;25.494;2024-03-23T14:23:32;9.68;;;5.05;;
33184;SDS011;19550;42.872;25.494;2024-03-23T14:25:58;4.38;;;2.67;;
33184;SDS011;19550;42.872;25.494;2024-03-23T14:28:25;3.72;;;2.88;;
33184;SDS011;19550;42.872;25.494;2024-03-23T14:30:51;7.47;;;3.35;;
33184;SDS011;19550;42.872;25.494;2024-03-23T14:35:51;4.68;;;3.25;;
33184;SDS011;19550;42.872;25.494;2024-03-23T14:38:18;6.90;;;3.03;;
33184;SDS011;19550;42.872;25.494;2024-03-23T14:40:45;3.53;;;2.67;;
33184;SDS011;19550;42.872;25.494;2024-03-23T14:43:11;3.47;;;2.80;;
33184;SDS011;19550;42.872;25.494;2024-03-23T14:45:45;4.78;;;2.70;;
33184;SDS011;19550;42.872;25.494;2024-03-23T14:48:31;5.40;;;2.78;;
33184;SDS011;19550;42.872;25.494;2024-03-23T14:50:57;3.90;;;3.17;;
33184;SDS011;19550;42.872;25.494;2024-03-23T14:53:24;4.72;;;3.53;;
33184;SDS011;19550;42.872;25.494;2024-03-23T14:55:50;4.15;;;3.30;;
33184;SDS011;19550;42.872;25.494;2024-03-23T14:58:21;6.22;;;3.05;;
33184;SDS011;19550;42.872;25.494;2024-03-23T15:00:49;3.90;;;2.70;;
33184;SDS011;19550;42.872;25.494;2024-03-23T15:03:18;7.40;;;3.25;;
33184;SDS011;19550;42.872;25.494;2024-03-23T15:05:52;6.40;;;3.05;;
33184;SDS011;19550;42.872;25.494;2024-03-23T15:08:20;5.20;;;2.60;;
33184;SDS011;19550;42.872;25.494;2024-03-23T15:10:45;3.28;;;2.58;;
33184;SDS011;19550;42.872;25.494;2024-03-23T15:13:12;4.53;;;3.10;;
33184;SDS011;19550;42.872;25.494;2024-03-23T15:15:38;3.00;;;2.60;;
33184;SDS011;19550;42.872;25.494;2024-03-23T15:18:06;3.15;;;2.65;;
33184;SDS011;19550;42.872;25.494;2024-03-23T15:20:32;3.60;;;2.92;;
33184;SDS011;19550;42.872;25.494;2024-03-23T15:23:02;15.63;;;6.03;;